sensor_id;sensor_type;location;lat;lon;timestamp;P1;P2;P0
57623;PMS7003;43448;52.264;20.644;2023-08-06T00:00:00;11;11;
57623;PMS7003;43448;52.264;20.644;2023-08-06T00:10:00;8;8;
57623;PMS7003;43448;52.264;20.644;2023-08-06T00:20:00;8;8;
57623;PMS7003;43448;52.264;20.644;2023-08-06T00:30:00;12;10;
57623;PMS7003;43448;52.264;20.644;2023-08-06T00:40:00;7;7;
57623;PMS7003;43448;52.264;20.644;2023-08-06T00:50:00;9;9;
57623;PMS7003;43448;52.264;20.644;2023-08-06T01:00:00;8;8;
57623;PMS7003;43448;52.264;20.644;2023-08-06T01:10:05;9;8;
57623;PMS7003;43448;52.264;20.644;2023-08-06T01:20:00;8;8;
57623;PMS7003;43448;52.264;20.644;2023-08-06T01:30:02;9;8;
57623;PMS7003;43448;52.264;20.644;2023-08-06T01:40:00;7;7;
57623;PMS7003;43448;52.264;20.644;2023-08-06T01:50:00;8;8;
57623;PMS7003;43448;52.264;20.644;2023-08-06T02:00:00;8;7;
57623;PMS7003;43448;52.264;20.644;2023-08-06T02:10:00;7;7;
57623;PMS7003;43448;52.264;20.644;2023-08-06T02:20:00;8;8;
57623;PMS7003;43448;52.264;20.644;2023-08-06T02:30:00;8;6;
57623;PMS7003;43448;52.264;20.644;2023-08-06T02:40:00;7;7;
57623;PMS7003;43448;52.264;20.644;2023-08-06T02:50:00;8;7;
57623;PMS7003;43448;52.264;20.644;2023-08-06T03:00:00;9;8;
57623;PMS7003;43448;52.264;20.644;2023-08-06T03:10:00;7;7;
57623;PMS7003;43448;52.264;20.644;2023-08-06T03:20:00;9;9;
57623;PMS7003;43448;52.264;20.644;2023-08-06T03:30:00;8;6;
57623;PMS7003;43448;52.264;20.644;2023-08-06T03:40:00;9;8;
57623;PMS7003;43448;52.264;20.644;2023-08-06T03:50:00;7;7;
57623;PMS7003;43448;52.264;20.644;2023-08-06T04:00:00;7;6;
57623;PMS7003;43448;52.264;20.644;2023-08-06T04:10:01;5;5;
57623;PMS7003;43448;52.264;20.644;2023-08-06T04:20:00;7;7;
57623;PMS7003;43448;52.264;20.644;2023-08-06T04:30:00;6;6;
57623;PMS7003;43448;52.264;20.644;2023-08-06T04:40:00;7;7;
57623;PMS7003;43448;52.264;20.644;2023-08-06T04:50:00;7;7;
57623;PMS7003;43448;52.264;20.644;2023-08-06T05:00:00;6;6;
57623;PMS7003;43448;52.264;20.644;2023-08-06T05:10:00;9;7;
57623;PMS7003;43448;52.264;20.644;2023-08-06T05:20:00;7;7;
57623;PMS7003;43448;52.264;20.644;2023-08-06T05:30:00;8;6;
57623;PMS7003;43448;52.264;20.644;2023-08-06T05:40:00;9;8;
57623;PMS7003;43448;52.264;20.644;2023-08-06T05:50:01;8;8;
57623;PMS7003;43448;52.264;20.644;2023-08-06T06:00:00;8;8;
57623;PMS7003;43448;52.264;20.644;2023-08-06T06:10:00;17;15;
57623;PMS7003;43448;52.264;20.644;2023-08-06T06:20:00;19;18;
57623;PMS7003;43448;52.264;20.644;2023-08-06T06:30:00;21;19;
57623;PMS7003;43448;52.264;20.644;2023-08-06T06:40:00;20;17;
57623;PMS7003;43448;52.264;20.644;2023-08-06T06:50:00;22;16;
57623;PMS7003;43448;52.264;20.644;2023-08-06T07:00:00;20;15;
57623;PMS7003;43448;52.264;20.644;2023-08-06T07:10:01;22;16;
57623;PMS7003;43448;52.264;20.644;2023-08-06T07:20:00;16;16;
57623;PMS7003;43448;52.264;20.644;2023-08-06T07:30:00;22;21;
57623;PMS7003;43448;52.264;20.644;2023-08-06T07:40:00;21;17;
57623;PMS7003;43448;52.264;20.644;2023-08-06T07:50:00;21;18;
57623;PMS7003;43448;52.264;20.644;2023-08-06T08:00:01;26;19;
57623;PMS7003;43448;52.264;20.644;2023-08-06T08:10:00;22;19;
57623;PMS7003;43448;52.264;20.644;2023-08-06T08:20:00;19;16;
57623;PMS7003;43448;52.264;20.644;2023-08-06T08:30:00;18;16;
57623;PMS7003;43448;52.264;20.644;2023-08-06T08:40:00;22;21;
57623;PMS7003;43448;52.264;20.644;2023-08-06T08:50:00;19;17;
57623;PMS7003;43448;52.264;20.644;2023-08-06T09:00:00;20;17;
57623;PMS7003;43448;52.264;20.644;2023-08-06T09:10:01;22;19;
57623;PMS7003;43448;52.264;20.644;2023-08-06T09:20:08;18;15;
57623;PMS7003;43448;52.264;20.644;2023-08-06T09:30:00;19;17;
57623;PMS7003;43448;52.264;20.644;2023-08-06T09:40:00;25;19;
57623;PMS7003;43448;52.264;20.644;2023-08-06T09:50:00;21;16;
57623;PMS7003;43448;52.264;20.644;2023-08-06T10:00:00;19;17;
57623;PMS7003;43448;52.264;20.644;2023-08-06T10:10:00;20;17;
57623;PMS7003;43448;52.264;20.644;2023-08-06T10:20:00;21;21;
57623;PMS7003;43448;52.264;20.644;2023-08-06T10:30:33;26;18;
57623;PMS7003;43448;52.264;20.644;2023-08-06T10:40:00;20;18;
57623;PMS7003;43448;52.264;20.644;2023-08-06T10:50:00;20;16;
57623;PMS7003;43448;52.264;20.644;2023-08-06T11:00:00;20;18;
57623;PMS7003;43448;52.264;20.644;2023-08-06T11:10:01;18;18;
57623;PMS7003;43448;52.264;20.644;2023-08-06T11:20:00;22;16;
57623;PMS7003;43448;52.264;20.644;2023-08-06T11:30:00;14;14;
57623;PMS7003;43448;52.264;20.644;2023-08-06T11:40:00;20;16;
57623;PMS7003;43448;52.264;20.644;2023-08-06T11:50:00;15;15;
57623;PMS7003;43448;52.264;20.644;2023-08-06T12:00:01;17;17;
57623;PMS7003;43448;52.264;20.644;2023-08-06T12:10:00;18;16;
57623;PMS7003;43448;52.264;20.644;2023-08-06T12:20:00;18;15;
57623;PMS7003;43448;52.264;20.644;2023-08-06T12:30:00;16;15;
57623;PMS7003;43448;52.264;20.644;2023-08-06T12:40:00;16;13;
57623;PMS7003;43448;52.264;20.644;2023-08-06T12:50:00;16;14;
57623;PMS7003;43448;52.264;20.644;2023-08-06T13:00:00;18;14;
57623;PMS7003;43448;52.264;20.644;2023-08-06T13:10:00;16;14;
57623;PMS7003;43448;52.264;20.644;2023-08-06T13:20:00;14;13;
57623;PMS7003;43448;52.264;20.644;2023-08-06T13:30:00;14;14;
57623;PMS7003;43448;52.264;20.644;2023-08-06T13:40:00;15;12;
57623;PMS7003;43448;52.264;20.644;2023-08-06T13:50:00;10;10;
57623;PMS7003;43448;52.264;20.644;2023-08-06T14:00:01;13;11;
57623;PMS7003;43448;52.264;20.644;2023-08-06T14:10:00;16;14;
57623;PMS7003;43448;52.264;20.644;2023-08-06T14:20:00;15;14;
57623;PMS7003;43448;52.264;20.644;2023-08-06T14:30:00;14;11;
57623;PMS7003;43448;52.264;20.644;2023-08-06T14:40:00;19;16;
57623;PMS7003;43448;52.264;20.644;2023-08-06T14:50:00;14;14;
57623;PMS7003;43448;52.264;20.644;2023-08-06T15:00:00;13;13;
57623;PMS7003;43448;52.264;20.644;2023-08-06T15:10:00;15;13;
57623;PMS7003;43448;52.264;20.644;2023-08-06T15:20:00;14;14;
57623;PMS7003;43448;52.264;20.644;2023-08-06T15:30:00;11;10;
57623;PMS7003;43448;52.264;20.644;2023-08-06T15:40:00;12;9;
57623;PMS7003;43448;52.264;20.644;2023-08-06T15:50:00;12;10;
57623;PMS7003;43448;52.264;20.644;2023-08-06T16:00:01;9;9;
57623;PMS7003;43448;52.264;20.644;2023-08-06T16:10:00;10;8;
57623;PMS7003;43448;52.264;20.644;2023-08-06T16:20:00;6;6;
57623;PMS7003;43448;52.264;20.644;2023-08-06T16:30:00;8;6;
57623;PMS7003;43448;52.264;20.644;2023-08-06T16:40:00;6;4;
57623;PMS7003;43448;52.264;20.644;2023-08-06T16:50:00;4;3;
57623;PMS7003;43448;52.264;20.644;2023-08-06T17:00:01;3;3;
57623;PMS7003;43448;52.264;20.644;2023-08-06T17:10:00;3;3;
57623;PMS7003;43448;52.264;20.644;2023-08-06T17:20:00;3;3;
57623;PMS7003;43448;52.264;20.644;2023-08-06T17:30:00;3;3;
57623;PMS7003;43448;52.264;20.644;2023-08-06T17:40:00;5;3;
57623;PMS7003;43448;52.264;20.644;2023-08-06T17:50:00;2;2;
57623;PMS7003;43448;52.264;20.644;2023-08-06T18:00:00;3;3;
57623;PMS7003;43448;52.264;20.644;2023-08-06T18:10:00;3;2;
57623;PMS7003;43448;52.264;20.644;2023-08-06T18:20:00;4;3;
57623;PMS7003;43448;52.264;20.644;2023-08-06T18:30:00;3;3;
57623;PMS7003;43448;52.264;20.644;2023-08-06T18:40:00;2;2;
57623;PMS7003;43448;52.264;20.644;2023-08-06T18:50:00;3;2;
57623;PMS7003;43448;52.264;20.644;2023-08-06T19:00:00;2;2;
57623;PMS7003;43448;52.264;20.644;2023-08-06T19:10:00;1;1;
57623;PMS7003;43448;52.264;20.644;2023-08-06T19:20:00;0;0;
57623;PMS7003;43448;52.264;20.644;2023-08-06T19:30:00;2;2;
57623;PMS7003;43448;52.264;20.644;2023-08-06T19:40:00;2;1;
57623;PMS7003;43448;52.264;20.644;2023-08-06T19:50:00;1;1;
57623;PMS7003;43448;52.264;20.644;2023-08-06T20:00:00;2;1;
57623;PMS7003;43448;52.264;20.644;2023-08-06T20:10:00;0;0;
57623;PMS7003;43448;52.264;20.644;2023-08-06T20:20:00;1;1;
57623;PMS7003;43448;52.264;20.644;2023-08-06T20:30:00;3;0;
57623;PMS7003;43448;52.264;20.644;2023-08-06T20:40:00;0;0;
57623;PMS7003;43448;52.264;20.644;2023-08-06T20:50:00;0;0;
57623;PMS7003;43448;52.264;20.644;2023-08-06T21:00:00;0;0;
57623;PMS7003;43448;52.264;20.644;2023-08-06T21:10:00;1;1;
57623;PMS7003;43448;52.264;20.644;2023-08-06T21:20:00;0;0;
57623;PMS7003;43448;52.264;20.644;2023-08-06T21:30:00;0;0;
57623;PMS7003;43448;52.264;20.644;2023-08-06T21:40:00;0;0;
57623;PMS7003;43448;52.264;20.644;2023-08-06T21:50:00;0;0;
57623;PMS7003;43448;52.264;20.644;2023-08-06T22:00:00;0;0;
57623;PMS7003;43448;52.264;20.644;2023-08-06T22:10:00;0;0;
57623;PMS7003;43448;52.264;20.644;2023-08-06T22:20:00;0;0;
57623;PMS7003;43448;52.264;20.644;2023-08-06T22:30:00;0;0;
57623;PMS7003;43448;52.264;20.644;2023-08-06T22:40:00;0;0;
57623;PMS7003;43448;52.264;20.644;2023-08-06T22:50:00;0;0;
57623;PMS7003;43448;52.264;20.644;2023-08-06T23:00:00;0;0;
57623;PMS7003;43448;52.264;20.644;2023-08-06T23:10:00;0;0;
57623;PMS7003;43448;52.264;20.644;2023-08-06T23:20:01;0;0;
57623;PMS7003;43448;52.264;20.644;2023-08-06T23:30:00;0;0;
57623;PMS7003;43448;52.264;20.644;2023-08-06T23:40:00;0;0;
57623;PMS7003;43448;52.264;20.644;2023-08-06T23:50:00;0;0;
